sensor_id;sensor_type;location;lat;lon;timestamp;P1;durP1;ratioP1;P2;durP2;ratioP2
29218;SDS011;16421;50.202;7.852;2024-03-17T00:03:27;1.80;;;1.45;;
29218;SDS011;16421;50.202;7.852;2024-03-17T00:08:30;4.70;;;1.70;;
29218;SDS011;16421;50.202;7.852;2024-03-17T00:13:34;6.95;;;1.70;;
29218;SDS011;16421;50.202;7.852;2024-03-17T00:18:36;2.83;;;1.17;;
29218;SDS011;16421;50.202;7.852;2024-03-17T00:23:39;8.88;;;1.75;;
29218;SDS011;16421;50.202;7.852;2024-03-17T00:28:43;3.90;;;1.30;;
29218;SDS011;16421;50.202;7.852;2024-03-17T00:33:48;2.50;;;1.40;;
29218;SDS011;16421;50.202;7.852;2024-03-17T00:38:53;2.45;;;1.60;;
29218;SDS011;16421;50.202;7.852;2024-03-17T00:43:57;2.15;;;1.60;;
29218;SDS011;16421;50.202;7.852;2024-03-17T00:49:01;2.97;;;1.92;;
29218;SDS011;16421;50.202;7.852;2024-03-17T00:54:04;4.30;;;2.20;;
29218;SDS011;16421;50.202;7.852;2024-03-17T00:59:08;2.42;;;1.70;;
29218;SDS011;16421;50.202;7.852;2024-03-17T01:04:10;3.03;;;1.70;;
29218;SDS011;16421;50.202;7.852;2024-03-17T01:09:12;4.35;;;2.20;;
29218;SDS011;16421;50.202;7.852;2024-03-17T01:14:16;2.13;;;1.63;;
29218;SDS011;16421;50.202;7.852;2024-03-17T01:19:18;4.05;;;2.33;;
29218;SDS011;16421;50.202;7.852;2024-03-17T01:24:21;3.65;;;1.90;;
29218;SDS011;16421;50.202;7.852;2024-03-17T01:29:26;2.28;;;1.60;;
29218;SDS011;16421;50.202;7.852;2024-03-17T01:34:28;2.72;;;1.80;;
29218;SDS011;16421;50.202;7.852;2024-03-17T01:39:31;1.83;;;1.58;;
29218;SDS011;16421;50.202;7.852;2024-03-17T01:44:35;4.22;;;1.77;;
29218;SDS011;16421;50.202;7.852;2024-03-17T01:49:37;1.90;;;1.33;;
29218;SDS011;16421;50.202;7.852;2024-03-17T01:54:40;2.60;;;1.50;;
29218;SDS011;16421;50.202;7.852;2024-03-17T01:59:44;1.58;;;1.40;;
29218;SDS011;16421;50.202;7.852;2024-03-17T02:04:47;1.13;;;1.02;;
29218;SDS011;16421;50.202;7.852;2024-03-17T02:09:50;2.00;;;1.30;;
29218;SDS011;16421;50.202;7.852;2024-03-17T02:14:54;1.95;;;1.35;;
29218;SDS011;16421;50.202;7.852;2024-03-17T02:19:56;1.48;;;1.17;;
29218;SDS011;16421;50.202;7.852;2024-03-17T02:25:00;1.45;;;1.30;;
29218;SDS011;16421;50.202;7.852;2024-03-17T02:30:03;1.75;;;1.45;;
29218;SDS011;16421;50.202;7.852;2024-03-17T02:35:09;3.33;;;1.42;;
29218;SDS011;16421;50.202;7.852;2024-03-17T02:40:13;1.65;;;1.33;;
29218;SDS011;16421;50.202;7.852;2024-03-17T02:45:16;1.75;;;1.50;;
29218;SDS011;16421;50.202;7.852;2024-03-17T02:50:18;1.55;;;1.45;;
29218;SDS011;16421;50.202;7.852;2024-03-17T02:55:22;1.95;;;1.40;;
29218;SDS011;16421;50.202;7.852;2024-03-17T03:00:26;1.48;;;1.38;;
29218;SDS011;16421;50.202;7.852;2024-03-17T03:05:30;2.05;;;1.80;;
29218;SDS011;16421;50.202;7.852;2024-03-17T03:10:34;4.95;;;2.80;;
29218;SDS011;16421;50.202;7.852;2024-03-17T03:15:36;3.45;;;2.10;;
29218;SDS011;16421;50.202;7.852;2024-03-17T03:20:39;3.30;;;1.95;;
29218;SDS011;16421;50.202;7.852;2024-03-17T03:25:42;2.22;;;1.65;;
29218;SDS011;16421;50.202;7.852;2024-03-17T03:30:45;2.35;;;1.33;;
29218;SDS011;16421;50.202;7.852;2024-03-17T03:35:47;2.17;;;1.50;;
29218;SDS011;16421;50.202;7.852;2024-03-17T03:40:52;1.60;;;1.38;;
29218;SDS011;16421;50.202;7.852;2024-03-17T03:45:54;3.03;;;1.73;;
29218;SDS011;16421;50.202;7.852;2024-03-17T03:50:56;2.00;;;1.55;;
29218;SDS011;16421;50.202;7.852;2024-03-17T03:56:02;3.05;;;1.60;;
29218;SDS011;16421;50.202;7.852;2024-03-17T04:01:07;2.42;;;1.67;;
29218;SDS011;16421;50.202;7.852;2024-03-17T04:06:11;2.25;;;1.52;;
29218;SDS011;16421;50.202;7.852;2024-03-17T04:11:16;4.50;;;2.47;;
29218;SDS011;16421;50.202;7.852;2024-03-17T04:16:18;3.55;;;1.95;;
29218;SDS011;16421;50.202;7.852;2024-03-17T04:21:21;6.63;;;2.90;;
29218;SDS011;16421;50.202;7.852;2024-03-17T04:26:26;7.43;;;3.15;;
29218;SDS011;16421;50.202;7.852;2024-03-17T04:31:28;7.38;;;3.40;;
29218;SDS011;16421;50.202;7.852;2024-03-17T04:36:30;7.75;;;3.53;;
29218;SDS011;16421;50.202;7.852;2024-03-17T04:41:34;8.40;;;3.83;;
29218;SDS011;16421;50.202;7.852;2024-03-17T04:46:38;9.10;;;3.45;;
29218;SDS011;16421;50.202;7.852;2024-03-17T04:51:40;5.63;;;3.25;;
29218;SDS011;16421;50.202;7.852;2024-03-17T04:56:44;4.40;;;2.83;;
29218;SDS011;16421;50.202;7.852;2024-03-17T05:01:47;4.00;;;2.03;;
29218;SDS011;16421;50.202;7.852;2024-03-17T05:06:49;3.70;;;2.28;;
29218;SDS011;16421;50.202;7.852;2024-03-17T05:11:53;2.70;;;1.60;;
29218;SDS011;16421;50.202;7.852;2024-03-17T05:16:56;2.05;;;1.70;;
29218;SDS011;16421;50.202;7.852;2024-03-17T05:21:58;2.13;;;1.50;;
29218;SDS011;16421;50.202;7.852;2024-03-17T05:27:02;1.98;;;1.70;;
29218;SDS011;16421;50.202;7.852;2024-03-17T05:32:05;1.92;;;1.35;;
29218;SDS011;16421;50.202;7.852;2024-03-17T05:37:08;1.83;;;1.50;;
29218;SDS011;16421;50.202;7.852;2024-03-17T05:42:11;3.00;;;1.70;;
29218;SDS011;16421;50.202;7.852;2024-03-17T05:47:14;2.05;;;1.70;;
29218;SDS011;16421;50.202;7.852;2024-03-17T05:52:17;4.53;;;1.90;;
29218;SDS011;16421;50.202;7.852;2024-03-17T05:57:21;1.83;;;1.33;;
29218;SDS011;16421;50.202;7.852;2024-03-17T06:02:24;2.85;;;1.60;;
29218;SDS011;16421;50.202;7.852;2024-03-17T06:07:26;3.05;;;1.45;;
29218;SDS011;16421;50.202;7.852;2024-03-17T06:12:30;1.80;;;1.60;;
29218;SDS011;16421;50.202;7.852;2024-03-17T06:17:33;1.73;;;1.63;;
29218;SDS011;16421;50.202;7.852;2024-03-17T06:22:35;2.03;;;1.60;;
29218;SDS011;16421;50.202;7.852;2024-03-17T06:27:39;2.45;;;1.85;;
29218;SDS011;16421;50.202;7.852;2024-03-17T06:32:43;2.65;;;2.00;;
29218;SDS011;16421;50.202;7.852;2024-03-17T06:37:46;2.30;;;1.60;;
29218;SDS011;16421;50.202;7.852;2024-03-17T06:42:50;2.55;;;1.55;;
29218;SDS011;16421;50.202;7.852;2024-03-17T06:47:54;2.60;;;1.55;;
29218;SDS011;16421;50.202;7.852;2024-03-17T06:52:56;2.22;;;1.70;;
29218;SDS011;16421;50.202;7.852;2024-03-17T06:58:00;3.08;;;2.08;;
29218;SDS011;16421;50.202;7.852;2024-03-17T07:03:03;2.53;;;1.65;;
29218;SDS011;16421;50.202;7.852;2024-03-17T07:08:07;2.30;;;1.70;;
29218;SDS011;16421;50.202;7.852;2024-03-17T07:13:10;2.78;;;2.30;;
29218;SDS011;16421;50.202;7.852;2024-03-17T07:18:13;2.78;;;2.17;;
29218;SDS011;16421;50.202;7.852;2024-03-17T07:23:15;1.67;;;1.48;;
29218;SDS011;16421;50.202;7.852;2024-03-17T07:28:19;3.08;;;2.10;;
29218;SDS011;16421;50.202;7.852;2024-03-17T07:33:22;2.08;;;1.70;;
29218;SDS011;16421;50.202;7.852;2024-03-17T07:38:25;2.28;;;1.63;;
29218;SDS011;16421;50.202;7.852;2024-03-17T07:43:30;2.13;;;1.45;;
29218;SDS011;16421;50.202;7.852;2024-03-17T07:48:34;2.00;;;1.60;;
29218;SDS011;16421;50.202;7.852;2024-03-17T07:53:38;1.70;;;1.55;;
29218;SDS011;16421;50.202;7.852;2024-03-17T07:58:43;2.10;;;1.75;;
29218;SDS011;16421;50.202;7.852;2024-03-17T08:08:55;2.65;;;1.42;;
29218;SDS011;16421;50.202;7.852;2024-03-17T08:13:59;2.60;;;1.38;;
29218;SDS011;16421;50.202;7.852;2024-03-17T08:19:03;1.63;;;1.20;;
29218;SDS011;16421;50.202;7.852;2024-03-17T08:24:07;2.55;;;1.27;;
29218;SDS011;16421;50.202;7.852;2024-03-17T08:29:11;2.10;;;1.83;;
29218;SDS011;16421;50.202;7.852;2024-03-17T08:34:13;1.83;;;1.60;;
29218;SDS011;16421;50.202;7.852;2024-03-17T08:39:15;1.60;;;1.30;;
29218;SDS011;16421;50.202;7.852;2024-03-17T08:44:20;1.20;;;1.10;;
29218;SDS011;16421;50.202;7.852;2024-03-17T08:49:23;2.67;;;1.40;;
29218;SDS011;16421;50.202;7.852;2024-03-17T08:54:26;1.92;;;1.05;;
29218;SDS011;16421;50.202;7.852;2024-03-17T08:59:30;2.45;;;1.42;;
29218;SDS011;16421;50.202;7.852;2024-03-17T09:04:33;1.40;;;1.02;;
29218;SDS011;16421;50.202;7.852;2024-03-17T09:09:35;1.70;;;1.20;;
29218;SDS011;16421;50.202;7.852;2024-03-17T09:14:39;1.85;;;1.40;;
29218;SDS011;16421;50.202;7.852;2024-03-17T09:19:42;2.42;;;1.60;;
29218;SDS011;16421;50.202;7.852;2024-03-17T09:24:44;3.95;;;1.80;;
29218;SDS011;16421;50.202;7.852;2024-03-17T09:29:48;2.42;;;1.60;;
29218;SDS011;16421;50.202;7.852;2024-03-17T09:34:51;1.63;;;1.33;;
29218;SDS011;16421;50.202;7.852;2024-03-17T09:39:54;1.52;;;1.02;;
29218;SDS011;16421;50.202;7.852;2024-03-17T09:44:58;4.07;;;1.30;;
29218;SDS011;16421;50.202;7.852;2024-03-17T09:50:01;2.83;;;2.28;;
29218;SDS011;16421;50.202;7.852;2024-03-17T09:55:08;2.50;;;1.67;;
29218;SDS011;16421;50.202;7.852;2024-03-17T10:00:15;2.10;;;1.45;;
29218;SDS011;16421;50.202;7.852;2024-03-17T10:05:18;2.55;;;1.50;;
29218;SDS011;16421;50.202;7.852;2024-03-17T10:10:22;2.28;;;1.70;;
29218;SDS011;16421;50.202;7.852;2024-03-17T10:15:26;2.67;;;1.35;;
29218;SDS011;16421;50.202;7.852;2024-03-17T10:20:28;2.65;;;1.50;;
29218;SDS011;16421;50.202;7.852;2024-03-17T10:25:31;1.30;;;1.15;;
29218;SDS011;16421;50.202;7.852;2024-03-17T10:30:36;2.08;;;1.63;;
29218;SDS011;16421;50.202;7.852;2024-03-17T10:35:38;2.05;;;1.85;;
29218;SDS011;16421;50.202;7.852;2024-03-17T10:40:41;2.28;;;1.30;;
29218;SDS011;16421;50.202;7.852;2024-03-17T10:45:45;1.40;;;0.98;;
29218;SDS011;16421;50.202;7.852;2024-03-17T10:50:48;2.35;;;1.30;;
29218;SDS011;16421;50.202;7.852;2024-03-17T10:56:02;2.93;;;1.93;;
29218;SDS011;16421;50.202;7.852;2024-03-17T11:01:10;2.97;;;1.77;;
29218;SDS011;16421;50.202;7.852;2024-03-17T11:06:17;2.47;;;1.65;;
29218;SDS011;16421;50.202;7.852;2024-03-17T11:11:34;2.05;;;1.90;;
29218;SDS011;16421;50.202;7.852;2024-03-17T11:16:41;2.50;;;1.88;;
29218;SDS011;16421;50.202;7.852;2024-03-17T11:21:43;2.88;;;1.95;;
29218;SDS011;16421;50.202;7.852;2024-03-17T11:26:46;2.42;;;1.60;;
29218;SDS011;16421;50.202;7.852;2024-03-17T11:31:49;1.98;;;1.77;;
29218;SDS011;16421;50.202;7.852;2024-03-17T11:36:56;1.90;;;1.45;;
29218;SDS011;16421;50.202;7.852;2024-03-17T11:42:04;2.33;;;1.50;;
29218;SDS011;16421;50.202;7.852;2024-03-17T11:47:12;3.53;;;1.70;;
29218;SDS011;16421;50.202;7.852;2024-03-17T11:52:15;2.08;;;1.50;;
29218;SDS011;16421;50.202;7.852;2024-03-17T11:57:20;2.72;;;1.75;;
29218;SDS011;16421;50.202;7.852;2024-03-17T12:02:26;5.13;;;1.97;;
29218;SDS011;16421;50.202;7.852;2024-03-17T12:07:32;2.45;;;1.73;;
29218;SDS011;16421;50.202;7.852;2024-03-17T12:12:46;1.92;;;1.73;;
29218;SDS011;16421;50.202;7.852;2024-03-17T12:22:55;2.05;;;1.25;;
29218;SDS011;16421;50.202;7.852;2024-03-17T12:27:58;2.30;;;1.60;;
29218;SDS011;16421;50.202;7.852;2024-03-17T12:33:02;2.00;;;1.77;;
29218;SDS011;16421;50.202;7.852;2024-03-17T12:38:18;2.25;;;1.85;;
29218;SDS011;16421;50.202;7.852;2024-03-17T12:43:22;3.63;;;1.65;;
29218;SDS011;16421;50.202;7.852;2024-03-17T12:48:25;3.55;;;1.75;;
29218;SDS011;16421;50.202;7.852;2024-03-17T12:53:28;2.45;;;1.40;;
29218;SDS011;16421;50.202;7.852;2024-03-17T12:58:30;3.58;;;1.38;;
29218;SDS011;16421;50.202;7.852;2024-03-17T13:03:51;1.77;;;1.42;;
29218;SDS011;16421;50.202;7.852;2024-03-17T13:08:54;4.60;;;1.77;;
29218;SDS011;16421;50.202;7.852;2024-03-17T13:13:56;1.10;;;1.00;;
29218;SDS011;16421;50.202;7.852;2024-03-17T13:19:00;2.08;;;1.80;;
29218;SDS011;16421;50.202;7.852;2024-03-17T13:24:03;2.95;;;1.50;;
29218;SDS011;16421;50.202;7.852;2024-03-17T13:29:05;2.78;;;1.42;;
29218;SDS011;16421;50.202;7.852;2024-03-17T13:34:09;2.28;;;1.38;;
29218;SDS011;16421;50.202;7.852;2024-03-17T13:39:11;1.48;;;1.10;;
29218;SDS011;16421;50.202;7.852;2024-03-17T13:44:17;1.35;;;0.80;;
29218;SDS011;16421;50.202;7.852;2024-03-17T13:49:21;2.00;;;1.55;;
29218;SDS011;16421;50.202;7.852;2024-03-17T13:54:24;1.30;;;1.20;;
29218;SDS011;16421;50.202;7.852;2024-03-17T13:59:26;1.05;;;0.95;;
29218;SDS011;16421;50.202;7.852;2024-03-17T14:04:30;2.65;;;1.95;;
29218;SDS011;16421;50.202;7.852;2024-03-17T14:09:32;2.13;;;1.52;;
29218;SDS011;16421;50.202;7.852;2024-03-17T14:14:35;4.47;;;2.50;;
29218;SDS011;16421;50.202;7.852;2024-03-17T14:19:38;1.92;;;1.35;;
29218;SDS011;16421;50.202;7.852;2024-03-17T14:24:41;2.33;;;1.52;;
29218;SDS011;16421;50.202;7.852;2024-03-17T14:29:43;1.77;;;1.30;;
29218;SDS011;16421;50.202;7.852;2024-03-17T14:34:47;1.30;;;1.20;;
29218;SDS011;16421;50.202;7.852;2024-03-17T14:39:51;2.20;;;1.63;;
29218;SDS011;16421;50.202;7.852;2024-03-17T14:44:53;2.22;;;1.20;;
29218;SDS011;16421;50.202;7.852;2024-03-17T14:49:57;1.60;;;1.00;;
29218;SDS011;16421;50.202;7.852;2024-03-17T14:55:00;2.38;;;1.90;;
29218;SDS011;16421;50.202;7.852;2024-03-17T15:00:02;3.13;;;1.85;;
29218;SDS011;16421;50.202;7.852;2024-03-17T15:05:15;2.53;;;1.60;;
29218;SDS011;16421;50.202;7.852;2024-03-17T15:10:19;3.13;;;1.50;;
29218;SDS011;16421;50.202;7.852;2024-03-17T15:15:21;1.67;;;1.50;;
29218;SDS011;16421;50.202;7.852;2024-03-17T15:20:25;1.75;;;1.20;;
29218;SDS011;16421;50.202;7.852;2024-03-17T15:25:28;3.58;;;1.70;;
29218;SDS011;16421;50.202;7.852;2024-03-17T15:30:30;2.85;;;1.60;;
29218;SDS011;16421;50.202;7.852;2024-03-17T15:35:35;4.22;;;2.08;;
29218;SDS011;16421;50.202;7.852;2024-03-17T15:40:37;1.70;;;1.23;;
29218;SDS011;16421;50.202;7.852;2024-03-17T15:45:40;1.27;;;1.17;;
29218;SDS011;16421;50.202;7.852;2024-03-17T15:50:49;2.65;;;1.20;;
29218;SDS011;16421;50.202;7.852;2024-03-17T15:55:55;1.33;;;1.13;;
29218;SDS011;16421;50.202;7.852;2024-03-17T16:00:58;3.70;;;1.60;;
29218;SDS011;16421;50.202;7.852;2024-03-17T16:06:09;2.15;;;1.33;;
29218;SDS011;16421;50.202;7.852;2024-03-17T16:11:13;1.35;;;0.95;;
29218;SDS011;16421;50.202;7.852;2024-03-17T16:16:17;1.10;;;1.00;;
29218;SDS011;16421;50.202;7.852;2024-03-17T16:21:22;3.60;;;2.22;;
29218;SDS011;16421;50.202;7.852;2024-03-17T16:26:25;4.38;;;2.70;;
29218;SDS011;16421;50.202;7.852;2024-03-17T16:31:29;2.83;;;2.10;;
29218;SDS011;16421;50.202;7.852;2024-03-17T16:36:32;2.50;;;1.85;;
29218;SDS011;16421;50.202;7.852;2024-03-17T16:41:39;4.50;;;2.80;;
29218;SDS011;16421;50.202;7.852;2024-03-17T16:52:27;3.42;;;2.67;;
29218;SDS011;16421;50.202;7.852;2024-03-17T16:57:29;4.55;;;3.05;;
29218;SDS011;16421;50.202;7.852;2024-03-17T17:02:32;4.00;;;2.90;;
29218;SDS011;16421;50.202;7.852;2024-03-17T17:07:35;5.50;;;2.92;;
29218;SDS011;16421;50.202;7.852;2024-03-17T17:12:38;4.70;;;3.90;;
29218;SDS011;16421;50.202;7.852;2024-03-17T17:17:42;4.25;;;2.70;;
29218;SDS011;16421;50.202;7.852;2024-03-17T17:22:51;3.90;;;3.03;;
29218;SDS011;16421;50.202;7.852;2024-03-17T17:27:53;4.15;;;3.25;;
29218;SDS011;16421;50.202;7.852;2024-03-17T17:32:55;6.63;;;4.00;;
29218;SDS011;16421;50.202;7.852;2024-03-17T17:38:00;6.97;;;4.07;;
29218;SDS011;16421;50.202;7.852;2024-03-17T17:43:04;6.45;;;4.00;;
29218;SDS011;16421;50.202;7.852;2024-03-17T17:48:06;6.47;;;4.38;;
29218;SDS011;16421;50.202;7.852;2024-03-17T17:53:10;6.25;;;4.10;;
29218;SDS011;16421;50.202;7.852;2024-03-17T17:58:12;5.25;;;3.60;;
29218;SDS011;16421;50.202;7.852;2024-03-17T18:03:15;4.70;;;3.35;;
29218;SDS011;16421;50.202;7.852;2024-03-17T18:08:18;5.00;;;3.80;;
29218;SDS011;16421;50.202;7.852;2024-03-17T18:13:21;4.97;;;3.65;;
29218;SDS011;16421;50.202;7.852;2024-03-17T18:18:26;5.13;;;3.83;;
29218;SDS011;16421;50.202;7.852;2024-03-17T18:23:33;6.30;;;4.73;;
29218;SDS011;16421;50.202;7.852;2024-03-17T18:28:36;7.25;;;4.80;;
29218;SDS011;16421;50.202;7.852;2024-03-17T18:33:40;6.80;;;4.55;;
29218;SDS011;16421;50.202;7.852;2024-03-17T18:38:45;5.72;;;4.25;;
29218;SDS011;16421;50.202;7.852;2024-03-17T18:43:49;5.68;;;3.70;;
29218;SDS011;16421;50.202;7.852;2024-03-17T18:48:53;4.68;;;3.75;;
29218;SDS011;16421;50.202;7.852;2024-03-17T18:53:57;5.10;;;4.10;;
29218;SDS011;16421;50.202;7.852;2024-03-17T18:58:59;6.43;;;3.72;;
29218;SDS011;16421;50.202;7.852;2024-03-17T19:04:02;5.80;;;4.20;;
29218;SDS011;16421;50.202;7.852;2024-03-17T19:09:05;5.88;;;4.03;;
29218;SDS011;16421;50.202;7.852;2024-03-17T19:14:08;5.30;;;3.80;;
29218;SDS011;16421;50.202;7.852;2024-03-17T19:19:11;5.55;;;3.22;;
29218;SDS011;16421;50.202;7.852;2024-03-17T19:24:16;5.25;;;3.55;;
29218;SDS011;16421;50.202;7.852;2024-03-17T19:29:19;5.15;;;3.90;;
29218;SDS011;16421;50.202;7.852;2024-03-17T19:34:21;6.40;;;4.00;;
29218;SDS011;16421;50.202;7.852;2024-03-17T19:39:26;6.03;;;4.20;;
29218;SDS011;16421;50.202;7.852;2024-03-17T19:44:28;7.07;;;3.67;;
29218;SDS011;16421;50.202;7.852;2024-03-17T19:49:31;5.72;;;4.03;;
29218;SDS011;16421;50.202;7.852;2024-03-17T19:54:35;4.60;;;3.80;;
29218;SDS011;16421;50.202;7.852;2024-03-17T19:59:38;6.35;;;4.35;;
29218;SDS011;16421;50.202;7.852;2024-03-17T20:04:40;5.95;;;4.00;;
29218;SDS011;16421;50.202;7.852;2024-03-17T20:09:44;6.95;;;4.40;;
29218;SDS011;16421;50.202;7.852;2024-03-17T20:14:47;5.78;;;3.88;;
29218;SDS011;16421;50.202;7.852;2024-03-17T20:19:49;4.88;;;3.72;;
29218;SDS011;16421;50.202;7.852;2024-03-17T20:24:53;5.55;;;4.13;;
29218;SDS011;16421;50.202;7.852;2024-03-17T20:30:02;6.68;;;4.13;;
29218;SDS011;16421;50.202;7.852;2024-03-17T20:35:05;4.53;;;3.53;;
29218;SDS011;16421;50.202;7.852;2024-03-17T20:40:11;5.60;;;4.10;;
29218;SDS011;16421;50.202;7.852;2024-03-17T20:45:14;6.05;;;3.85;;
29218;SDS011;16421;50.202;7.852;2024-03-17T20:50:18;7.05;;;3.88;;
29218;SDS011;16421;50.202;7.852;2024-03-17T20:55:23;4.68;;;3.60;;
29218;SDS011;16421;50.202;7.852;2024-03-17T21:00:28;5.00;;;4.13;;
29218;SDS011;16421;50.202;7.852;2024-03-17T21:05:31;5.70;;;3.97;;
29218;SDS011;16421;50.202;7.852;2024-03-17T21:10:35;8.25;;;4.32;;
29218;SDS011;16421;50.202;7.852;2024-03-17T21:15:38;7.40;;;4.82;;
29218;SDS011;16421;50.202;7.852;2024-03-17T21:20:42;8.73;;;5.70;;
29218;SDS011;16421;50.202;7.852;2024-03-17T21:25:46;7.20;;;5.13;;
29218;SDS011;16421;50.202;7.852;2024-03-17T21:30:49;8.02;;;5.00;;
29218;SDS011;16421;50.202;7.852;2024-03-17T21:35:59;5.80;;;4.28;;
29218;SDS011;16421;50.202;7.852;2024-03-17T21:41:08;7.73;;;4.97;;
29218;SDS011;16421;50.202;7.852;2024-03-17T21:46:14;7.68;;;4.88;;
29218;SDS011;16421;50.202;7.852;2024-03-17T21:51:16;7.93;;;4.78;;
29218;SDS011;16421;50.202;7.852;2024-03-17T21:56:20;7.57;;;5.10;;
29218;SDS011;16421;50.202;7.852;2024-03-17T22:01:23;6.00;;;4.78;;
29218;SDS011;16421;50.202;7.852;2024-03-17T22:06:25;8.30;;;5.55;;
29218;SDS011;16421;50.202;7.852;2024-03-17T22:11:29;7.63;;;5.03;;
29218;SDS011;16421;50.202;7.852;2024-03-17T22:16:31;8.10;;;5.32;;
29218;SDS011;16421;50.202;7.852;2024-03-17T22:21:34;7.18;;;5.25;;
29218;SDS011;16421;50.202;7.852;2024-03-17T22:26:37;6.30;;;4.38;;
29218;SDS011;16421;50.202;7.852;2024-03-17T22:31:40;7.40;;;4.25;;
29218;SDS011;16421;50.202;7.852;2024-03-17T22:36:43;8.70;;;5.47;;
29218;SDS011;16421;50.202;7.852;2024-03-17T22:41:47;7.03;;;4.65;;
29218;SDS011;16421;50.202;7.852;2024-03-17T22:46:49;8.68;;;6.28;;
29218;SDS011;16421;50.202;7.852;2024-03-17T22:51:52;6.80;;;4.78;;
29218;SDS011;16421;50.202;7.852;2024-03-17T22:56:55;6.57;;;4.40;;
29218;SDS011;16421;50.202;7.852;2024-03-17T23:02:00;6.00;;;4.47;;
29218;SDS011;16421;50.202;7.852;2024-03-17T23:07:04;7.38;;;5.25;;
29218;SDS011;16421;50.202;7.852;2024-03-17T23:12:07;7.45;;;5.38;;
29218;SDS011;16421;50.202;7.852;2024-03-17T23:17:11;10.85;;;6.05;;
29218;SDS011;16421;50.202;7.852;2024-03-17T23:22:13;8.10;;;5.60;;
29218;SDS011;16421;50.202;7.852;2024-03-17T23:27:17;8.05;;;5.55;;
29218;SDS011;16421;50.202;7.852;2024-03-17T23:32:19;8.43;;;5.32;;
29218;SDS011;16421;50.202;7.852;2024-03-17T23:37:21;8.45;;;5.63;;
29218;SDS011;16421;50.202;7.852;2024-03-17T23:42:25;6.78;;;4.90;;
29218;SDS011;16421;50.202;7.852;2024-03-17T23:47:28;7.30;;;5.40;;
29218;SDS011;16421;50.202;7.852;2024-03-17T23:52:30;8.07;;;4.78;;
29218;SDS011;16421;50.202;7.852;2024-03-17T23:57:35;8.00;;;5.30;;
